createdAt,value
2018-12-10T16:20:43.627Z,93.49
2018-12-10T17:50:19.111Z,93.32
2018-12-10T17:53:01.572Z,92.43
2018-12-10T18:01:33.629Z,94.02
2018-12-10T18:15:50.926Z,93.37
2018-12-10T18:18:26.370Z,93.59
2018-12-10T20:13:00.863Z,94.79
2018-12-10T20:15:52.564Z,95.66
2018-12-10T21:02:06.017Z,96.21
2018-12-10T21:32:49.783Z,96.42
2018-12-10T21:35:37.338Z,95.89
2018-12-10T21:41:13.232Z,95.91
2018-12-10T21:43:49.712Z,95.80
2018-12-10T21:46:30.649Z,95.60
2018-12-10T21:49:06.560Z,95.96
2018-12-10T21:51:42.982Z,95.98
2018-12-10T21:54:19.326Z,95.93
2018-12-10T21:56:58.840Z,95.99
2018-12-10T21:59:34.302Z,94.44
2018-12-10T22:02:08.116Z,95.46
2018-12-10T22:04:49.203Z,96.02
2018-12-10T22:07:29.339Z,96.23
2018-12-10T22:12:42.497Z,96.02
2018-12-10T22:15:17.181Z,96.09
2018-12-10T22:18:04.334Z,96.38
2018-12-10T22:20:43.152Z,96.68
2018-12-10T22:23:18.139Z,96.93
2018-12-10T22:25:52.195Z,96.88
2018-12-10T22:31:17.813Z,96.66
2018-12-10T22:33:53.258Z,96.47
2018-12-10T22:36:30.620Z,96.68
2018-12-10T22:39:07.194Z,96.78
2018-12-10T22:41:47.150Z,96.32
2018-12-10T22:44:22.023Z,96.72
2018-12-10T22:46:57.798Z,96.36
2018-12-10T22:52:34.773Z,96.76
2018-12-10T22:55:24.742Z,96.33
2018-12-10T23:03:28.542Z,95.97
2018-12-10T23:06:05.195Z,96.31
2018-12-10T23:11:26.312Z,95.83
2018-12-10T23:14:00.735Z,96.20
2018-12-10T23:16:35.025Z,95.88
2018-12-10T23:19:09.392Z,95.93
2018-12-10T23:21:43.435Z,95.72
2018-12-10T23:24:17.597Z,96.53
2018-12-10T23:26:51.687Z,95.97
2018-12-10T23:29:25.956Z,95.91
2018-12-10T23:32:00.607Z,96.62
2018-12-10T23:34:35.476Z,96.53
2018-12-10T23:37:09.540Z,96.56
2018-12-10T23:39:43.839Z,96.32
2018-12-10T23:42:18.155Z,96.65
2018-12-10T23:44:55.797Z,96.71
2018-12-10T23:47:31.096Z,96.38
2018-12-10T23:50:05.823Z,96.40
2018-12-10T23:52:39.807Z,95.80
2018-12-10T23:55:14.297Z,96.32
2018-12-10T23:57:48.992Z,96.23
